createdAt,value
2023-04-07T00:02:03.831Z,8.05
2023-04-07T00:04:30.373Z,7.97
2023-04-07T00:06:56.903Z,8.65
2023-04-07T00:09:23.311Z,8.20
2023-04-07T00:11:49.758Z,8.57
2023-04-07T00:14:16.228Z,8.73
2023-04-07T00:16:42.735Z,8.27
2023-04-07T00:19:09.192Z,8.82
2023-04-07T00:21:35.657Z,8.05
2023-04-07T00:24:02.111Z,8.68
2023-04-07T00:26:31.434Z,8.30
2023-04-07T00:28:58.873Z,8.30
2023-04-07T00:31:25.735Z,8.32
2023-04-07T00:33:52.289Z,8.30
2023-04-07T00:36:18.744Z,8.40
2023-04-07T00:38:45.315Z,8.25
2023-04-07T00:41:11.749Z,8.23
2023-04-07T00:43:38.258Z,8.45
2023-04-07T00:46:04.922Z,7.95
2023-04-07T00:48:31.588Z,7.53
2023-04-07T00:50:58.070Z,8.38
2023-04-07T00:53:24.694Z,7.47
2023-04-07T00:55:51.259Z,7.80
2023-04-07T00:58:17.764Z,7.45
2023-04-07T01:00:50.665Z,7.75
2023-04-07T01:03:33.933Z,8.10
2023-04-07T01:06:06.755Z,7.43
2023-04-07T01:08:47.923Z,7.75
2023-04-07T01:11:28.363Z,7.45
2023-04-07T01:13:55.372Z,6.70
2023-04-07T01:16:30.367Z,7.60
2023-04-07T01:19:01.757Z,8.20
2023-04-07T01:21:29.618Z,7.07
2023-04-07T01:24:03.744Z,7.38
2023-04-07T01:26:33.450Z,6.93
2023-04-07T01:29:32.342Z,7.78
2023-04-07T01:32:02.185Z,6.63
2023-04-07T01:34:31.554Z,7.40
2023-04-07T01:36:59.441Z,7.13
2023-04-07T01:39:27.821Z,7.53
2023-04-07T01:41:56.097Z,7.40
2023-04-07T01:44:23.055Z,7.75
2023-04-07T01:46:53.122Z,7.00
2023-04-07T01:49:20.351Z,8.15
2023-04-07T01:51:50.645Z,8.07
2023-04-07T01:54:18.136Z,8.00
2023-04-07T01:56:45.124Z,7.88
2023-04-07T01:59:12.099Z,7.25
2023-04-07T02:01:38.839Z,7.97
2023-04-07T02:04:19.574Z,8.38
2023-04-07T02:06:54.958Z,7.70
2023-04-07T02:09:24.240Z,7.53
2023-04-07T02:11:52.255Z,7.88
2023-04-07T02:14:21.422Z,7.35
2023-04-07T02:16:49.179Z,7.40
2023-04-07T02:19:15.821Z,6.93
2023-04-07T02:21:43.102Z,7.45
2023-04-07T02:24:11.970Z,7.53
2023-04-07T02:26:38.650Z,7.20
2023-04-07T02:29:05.622Z,7.10
2023-04-07T02:31:32.267Z,6.65
2023-04-07T02:33:58.739Z,7.28
2023-04-07T02:36:26.308Z,7.03
2023-04-07T02:38:52.805Z,6.95
2023-04-07T02:41:19.224Z,7.70
2023-04-07T02:43:46.005Z,7.35
2023-04-07T02:46:13.286Z,7.13
2023-04-07T02:48:41.230Z,7.55
2023-04-07T02:51:07.747Z,6.95
2023-04-07T02:53:34.262Z,7.53
2023-04-07T02:56:00.694Z,6.97
2023-04-07T02:58:27.126Z,7.65
2023-04-07T03:00:53.844Z,7.70
2023-04-07T03:03:20.990Z,7.78
2023-04-07T03:05:47.621Z,6.65
2023-04-07T03:08:14.100Z,7.07
2023-04-07T03:10:40.852Z,7.60
2023-04-07T03:13:08.286Z,7.18
2023-04-07T03:15:34.796Z,7.75
2023-04-07T03:18:01.319Z,7.95
2023-04-07T03:20:27.847Z,7.65
2023-04-07T03:22:54.256Z,7.22
2023-04-07T03:25:21.278Z,7.07
2023-04-07T03:27:47.702Z,7.65
2023-04-07T03:30:14.270Z,7.80
2023-04-07T03:32:40.715Z,7.40
2023-04-07T03:35:07.723Z,8.27
2023-04-07T03:37:34.160Z,7.68
2023-04-07T03:40:00.585Z,7.72
2023-04-07T03:42:26.993Z,7.63
2023-04-07T03:44:53.389Z,7.75
2023-04-07T03:47:19.824Z,7.70
2023-04-07T03:49:46.292Z,7.68
2023-04-07T03:52:12.757Z,7.28
2023-04-07T03:54:39.295Z,7.38
2023-04-07T03:57:05.781Z,7.10
2023-04-07T03:59:32.341Z,7.18
2023-04-07T04:04:33.426Z,6.70
2023-04-07T04:06:59.933Z,6.25
2023-04-07T04:09:26.515Z,6.80
2023-04-07T04:11:53.058Z,6.55
2023-04-07T04:14:19.670Z,6.55
2023-04-07T04:16:46.180Z,5.78
2023-04-07T04:19:12.703Z,6.55
2023-04-07T04:21:39.242Z,6.28
2023-04-07T04:24:05.803Z,6.55
2023-04-07T04:26:32.331Z,6.70
2023-04-07T04:28:58.856Z,6.55
2023-04-07T04:31:31.974Z,5.93
2023-04-07T04:33:58.484Z,6.20
2023-04-07T04:36:24.982Z,6.63
2023-04-07T04:38:51.693Z,6.47
2023-04-07T04:41:18.244Z,6.55
2023-04-07T04:43:45.229Z,6.15
2023-04-07T04:46:11.921Z,6.38
2023-04-07T04:48:38.372Z,6.60
2023-04-07T04:51:05.302Z,6.13
2023-04-07T04:53:32.579Z,6.60
2023-04-07T04:55:59.086Z,6.35
2023-04-07T04:58:25.720Z,6.82
2023-04-07T05:00:58.125Z,6.68
2023-04-07T05:03:26.556Z,6.18
2023-04-07T05:05:53.337Z,6.47
2023-04-07T05:08:19.915Z,6.30
2023-04-07T05:10:47.721Z,5.90
2023-04-07T05:13:14.543Z,6.20
2023-04-07T05:15:41.998Z,6.97
2023-04-07T05:18:08.559Z,6.03
2023-04-07T05:20:35.718Z,6.28
2023-04-07T05:23:09.801Z,6.18
2023-04-07T05:25:36.955Z,6.20
2023-04-07T05:28:03.617Z,6.35
2023-04-07T05:30:30.187Z,6.00
2023-04-07T05:32:56.877Z,5.93
2023-04-07T05:35:23.939Z,7.07
2023-04-07T05:37:53.219Z,6.43
2023-04-07T05:40:20.265Z,7.15
2023-04-07T05:42:46.793Z,6.55
2023-04-07T05:45:13.590Z,6.55
2023-04-07T05:47:40.491Z,6.35
2023-04-07T05:50:07.554Z,6.38
2023-04-07T05:52:34.106Z,6.40
2023-04-07T05:55:00.591Z,6.72
2023-04-07T05:57:28.468Z,6.53
2023-04-07T05:59:55.223Z,6.15
2023-04-07T06:02:21.788Z,6.40
2023-04-07T06:04:48.494Z,6.85
2023-04-07T06:07:15.181Z,6.53
2023-04-07T06:09:42.675Z,6.50
2023-04-07T06:12:10.717Z,6.68
2023-04-07T06:14:37.230Z,6.88
2023-04-07T06:17:03.985Z,7.28
2023-04-07T06:19:30.555Z,6.97
2023-04-07T06:21:57.109Z,7.25
2023-04-07T06:24:25.217Z,7.32
2023-04-07T06:26:54.926Z,6.88
2023-04-07T06:29:21.975Z,6.40
2023-04-07T06:31:48.537Z,7.00
2023-04-07T06:34:15.046Z,6.38
2023-04-07T06:36:41.562Z,6.15
2023-04-07T06:39:08.098Z,6.78
2023-04-07T06:41:34.684Z,6.55
2023-04-07T06:44:13.083Z,6.35
2023-04-07T06:46:39.717Z,6.57
2023-04-07T06:49:06.499Z,5.85
2023-04-07T06:51:33.109Z,5.70
2023-04-07T06:53:59.738Z,5.85
2023-04-07T06:56:27.129Z,5.95
2023-04-07T06:58:53.836Z,6.13
2023-04-07T07:01:20.530Z,6.80
2023-04-07T07:03:47.572Z,6.75
2023-04-07T07:06:14.488Z,6.13
2023-04-07T07:08:41.246Z,6.25
2023-04-07T07:11:07.875Z,6.38
2023-04-07T07:13:34.412Z,6.60
2023-04-07T07:16:01.025Z,6.30
2023-04-07T07:18:28.140Z,6.82
2023-04-07T07:20:55.878Z,5.75
2023-04-07T07:23:22.456Z,6.13
2023-04-07T07:25:48.953Z,6.22
2023-04-07T07:28:16.302Z,7.07
2023-04-07T07:30:42.941Z,7.40
2023-04-07T07:33:09.603Z,7.10
2023-04-07T07:35:38.006Z,7.03
2023-04-07T07:38:04.774Z,7.65
2023-04-07T07:40:31.349Z,8.00
2023-04-07T07:42:57.932Z,8.43
2023-04-07T07:45:24.703Z,8.20
2023-04-07T07:47:51.334Z,8.10
2023-04-07T07:50:17.939Z,8.18
2023-04-07T07:52:44.507Z,7.72
2023-04-07T07:55:11.373Z,6.95
2023-04-07T07:57:37.853Z,7.05
2023-04-07T08:00:04.794Z,7.00
2023-04-07T08:02:32.790Z,7.38
2023-04-07T08:05:00.584Z,7.32
2023-04-07T08:07:27.497Z,7.57
2023-04-07T08:09:53.940Z,7.68
2023-04-07T08:12:20.475Z,7.53
2023-04-07T08:14:47.133Z,8.32
2023-04-07T08:17:13.678Z,8.05
2023-04-07T08:19:40.298Z,7.93
2023-04-07T08:22:06.720Z,7.60
2023-04-07T08:24:33.189Z,7.38
2023-04-07T08:26:59.825Z,7.20
2023-04-07T08:29:26.329Z,8.10
2023-04-07T08:31:52.978Z,9.07
2023-04-07T08:34:21.200Z,8.50
2023-04-07T08:36:47.780Z,8.95
2023-04-07T08:39:14.405Z,8.23
2023-04-07T08:41:42.451Z,8.18
2023-04-07T08:44:10.612Z,9.38
2023-04-07T08:46:41.056Z,8.77
2023-04-07T08:49:13.964Z,8.10
2023-04-07T08:51:48.504Z,8.52
2023-04-07T08:54:18.695Z,8.50
2023-04-07T08:56:45.986Z,7.57
2023-04-07T08:59:14.561Z,6.82
2023-04-07T09:01:41.959Z,6.85
2023-04-07T09:04:10.400Z,6.57
2023-04-07T09:06:38.074Z,6.95
2023-04-07T09:09:07.992Z,7.18
2023-04-07T09:11:37.232Z,6.65
2023-04-07T09:14:03.904Z,7.10
2023-04-07T09:16:33.781Z,6.97
2023-04-07T09:19:00.503Z,7.18
2023-04-07T09:21:30.064Z,6.88
2023-04-07T09:23:56.843Z,6.85
2023-04-07T09:26:25.750Z,6.78
2023-04-07T09:28:56.778Z,6.63
2023-04-07T09:31:26.534Z,6.65
2023-04-07T09:33:53.441Z,6.43
2023-04-07T09:36:20.508Z,6.45
2023-04-07T09:38:46.909Z,5.82
2023-04-07T09:41:16.341Z,5.20
2023-04-07T09:43:45.377Z,5.45
2023-04-07T09:46:17.218Z,5.50
2023-04-07T09:48:45.758Z,5.65
2023-04-07T09:51:13.927Z,5.18
2023-04-07T09:53:51.651Z,6.03
2023-04-07T09:56:22.364Z,5.30
2023-04-07T09:58:53.291Z,5.65
2023-04-07T10:01:21.956Z,5.03
2023-04-07T10:03:49.328Z,5.22
2023-04-07T10:06:16.650Z,4.68
2023-04-07T10:08:43.888Z,4.85
2023-04-07T10:11:10.978Z,4.80
2023-04-07T10:13:40.329Z,4.53
2023-04-07T10:16:08.091Z,4.35
2023-04-07T10:18:36.805Z,4.50
2023-04-07T10:21:06.964Z,4.07
2023-04-07T10:23:56.708Z,4.30
2023-04-07T10:26:26.584Z,3.55
2023-04-07T10:29:00.367Z,3.28
2023-04-07T10:31:27.329Z,3.70
2023-04-07T10:33:54.891Z,3.42
2023-04-07T10:36:22.286Z,3.72
2023-04-07T10:39:07.315Z,3.90
2023-04-07T10:41:41.390Z,3.60
2023-04-07T10:44:09.984Z,3.65
2023-04-07T10:46:56.658Z,3.88
2023-04-07T10:49:23.109Z,3.65
2023-04-07T10:52:12.560Z,3.50
2023-04-07T10:54:39.880Z,3.38
2023-04-07T10:57:18.416Z,3.42
2023-04-07T11:00:29.660Z,3.35
2023-04-07T11:05:28.980Z,3.42
2023-04-07T11:07:55.528Z,3.97
2023-04-07T11:10:23.023Z,3.88
2023-04-07T11:13:05.143Z,3.75
2023-04-07T11:15:32.342Z,3.47
2023-04-07T11:18:13.495Z,3.50
2023-04-07T11:20:55.161Z,3.88
2023-04-07T11:23:23.831Z,3.85
2023-04-07T11:25:52.276Z,4.10
2023-04-07T11:28:18.955Z,4.07
2023-04-07T11:30:48.901Z,3.83
2023-04-07T11:33:21.418Z,4.20
2023-04-07T11:35:51.857Z,4.05
2023-04-07T11:38:19.252Z,3.33
2023-04-07T11:40:46.962Z,3.90
2023-04-07T11:43:24.954Z,4.15
2023-04-07T11:46:09.370Z,4.22
2023-04-07T11:48:37.236Z,3.88
2023-04-07T11:51:04.498Z,3.95
2023-04-07T11:53:38.133Z,3.67
2023-04-07T11:56:16.690Z,3.92
2023-04-07T11:58:49.723Z,3.42
2023-04-07T12:03:57.351Z,3.38
2023-04-07T12:06:34.533Z,3.85
2023-04-07T12:09:02.687Z,3.55
2023-04-07T12:11:30.005Z,3.38
2023-04-07T12:13:57.087Z,3.65
2023-04-07T12:16:24.200Z,3.85
2023-04-07T12:18:51.592Z,3.47
2023-04-07T12:21:18.851Z,3.47
2023-04-07T12:23:47.507Z,3.22
2023-04-07T12:26:14.318Z,3.63
2023-04-07T12:28:40.779Z,3.15
2023-04-07T12:31:07.201Z,3.70
2023-04-07T12:33:33.601Z,3.30
2023-04-07T12:36:00.170Z,3.53
2023-04-07T12:38:26.957Z,3.20
2023-04-07T12:40:53.762Z,3.28
2023-04-07T12:43:20.176Z,3.55
2023-04-07T12:45:47.160Z,3.42
2023-04-07T12:48:13.703Z,3.15
2023-04-07T12:50:40.349Z,3.22
2023-04-07T12:53:06.781Z,3.10
2023-04-07T12:55:33.496Z,3.20
2023-04-07T12:58:00.458Z,3.47
2023-04-07T13:00:26.994Z,3.00
2023-04-07T13:02:53.503Z,3.20
2023-04-07T13:05:20.051Z,3.08
2023-04-07T13:07:48.274Z,2.72
2023-04-07T13:10:16.103Z,3.03
2023-04-07T13:12:42.477Z,3.03
2023-04-07T13:15:09.069Z,2.90
2023-04-07T13:17:38.740Z,2.90
2023-04-07T13:20:06.417Z,2.72
2023-04-07T13:22:34.736Z,2.80
2023-04-07T13:25:02.369Z,2.88
2023-04-07T13:27:28.867Z,2.63
2023-04-07T13:29:55.690Z,3.30
2023-04-07T13:32:22.209Z,2.78
2023-04-07T13:34:48.813Z,3.38
2023-04-07T13:37:16.513Z,3.25
2023-04-07T13:39:42.982Z,2.90
2023-04-07T13:42:11.449Z,3.08
2023-04-07T13:44:40.020Z,3.40
2023-04-07T13:47:06.656Z,3.20
2023-04-07T13:49:33.092Z,2.90
2023-04-07T13:51:59.564Z,3.00
2023-04-07T13:54:25.999Z,3.00
2023-04-07T13:56:52.753Z,3.20
2023-04-07T13:59:19.235Z,2.90
2023-04-07T14:01:45.713Z,2.65
2023-04-07T14:04:12.511Z,3.40
2023-04-07T14:06:38.973Z,2.60
2023-04-07T14:09:06.432Z,2.85
2023-04-07T14:11:34.651Z,3.00
2023-04-07T14:14:01.926Z,2.92
2023-04-07T14:16:28.577Z,3.00
2023-04-07T14:18:55.913Z,3.65
2023-04-07T14:21:22.828Z,2.97
2023-04-07T14:23:50.999Z,3.38
2023-04-07T14:26:20.026Z,3.20
2023-04-07T14:28:47.501Z,3.25
2023-04-07T14:31:16.033Z,2.90
2023-04-07T14:33:43.718Z,3.05
2023-04-07T14:36:10.460Z,3.30
2023-04-07T14:38:37.009Z,3.38
2023-04-07T14:43:33.519Z,3.45
2023-04-07T14:46:00.055Z,3.35
2023-04-07T14:48:26.637Z,3.33
2023-04-07T14:51:06.105Z,3.20
2023-04-07T14:53:34.977Z,3.40
2023-04-07T14:56:04.673Z,3.47
2023-04-07T14:58:31.917Z,3.47
2023-04-07T15:00:58.436Z,3.67
2023-04-07T15:03:25.115Z,3.92
2023-04-07T15:05:51.650Z,3.83
2023-04-07T15:08:18.056Z,3.63
2023-04-07T15:10:44.422Z,3.50
2023-04-07T15:13:11.106Z,3.00
2023-04-07T15:15:37.480Z,2.60
2023-04-07T15:18:04.379Z,2.83
2023-04-07T15:20:30.855Z,2.65
2023-04-07T15:22:57.338Z,2.70
2023-04-07T15:25:23.782Z,2.40
2023-04-07T15:27:50.245Z,2.92
2023-04-07T15:30:16.712Z,3.17
2023-04-07T15:32:56.522Z,2.78
2023-04-07T15:35:23.009Z,2.75
2023-04-07T15:37:49.468Z,2.97
2023-04-07T15:40:16.015Z,2.97
2023-04-07T15:42:42.450Z,2.88
2023-04-07T15:45:09.777Z,3.17
2023-04-07T15:47:36.295Z,2.63
2023-04-07T15:50:02.966Z,2.90
2023-04-07T15:52:30.724Z,2.30
2023-04-07T15:54:57.297Z,2.85
2023-04-07T15:57:23.776Z,3.15
2023-04-07T15:59:50.240Z,3.20
2023-04-07T16:02:16.774Z,3.40
2023-04-07T16:04:44.694Z,3.25
2023-04-07T16:07:11.286Z,3.40
2023-04-07T16:09:37.792Z,3.63
2023-04-07T16:12:04.492Z,3.00
2023-04-07T16:14:31.257Z,3.50
2023-04-07T16:17:00.826Z,3.50
2023-04-07T16:19:27.885Z,3.88
2023-04-07T16:21:54.830Z,3.70
2023-04-07T16:24:22.149Z,3.70
2023-04-07T16:26:50.584Z,3.42
2023-04-07T16:29:17.972Z,3.80
2023-04-07T16:31:44.697Z,3.58
2023-04-07T16:34:12.108Z,3.38
2023-04-07T16:36:39.152Z,2.97
2023-04-07T16:39:05.991Z,3.08
2023-04-07T16:41:32.986Z,3.50
2023-04-07T16:43:59.475Z,3.17
2023-04-07T16:46:29.904Z,3.67
2023-04-07T16:48:56.552Z,3.17
2023-04-07T16:51:24.760Z,3.30
2023-04-07T16:53:51.355Z,3.17
2023-04-07T16:56:22.828Z,3.50
2023-04-07T16:58:50.353Z,3.45
2023-04-07T17:01:18.174Z,3.60
2023-04-07T17:03:48.332Z,3.13
2023-04-07T17:06:16.520Z,2.75
2023-04-07T17:08:43.969Z,3.17
2023-04-07T17:11:13.194Z,3.50
2023-04-07T17:13:40.283Z,3.15
2023-04-07T17:16:07.076Z,3.17
2023-04-07T17:18:33.903Z,3.10
2023-04-07T17:21:00.580Z,3.58
2023-04-07T17:23:28.283Z,3.38
2023-04-07T17:25:54.896Z,3.22
2023-04-07T17:28:21.494Z,3.10
2023-04-07T17:30:48.106Z,3.45
2023-04-07T17:33:14.620Z,3.00
2023-04-07T17:35:41.141Z,2.97
2023-04-07T17:38:07.691Z,3.40
2023-04-07T17:40:34.176Z,3.20
2023-04-07T17:43:00.809Z,3.28
2023-04-07T17:45:27.471Z,3.03
2023-04-07T17:47:54.914Z,3.70
2023-04-07T17:50:21.519Z,3.75
2023-04-07T17:52:47.902Z,3.55
2023-04-07T17:55:14.531Z,3.50
2023-04-07T17:57:41.838Z,4.68
2023-04-07T18:00:09.080Z,3.50
2023-04-07T18:02:35.868Z,2.90
2023-04-07T18:05:05.862Z,3.67
2023-04-07T18:07:32.488Z,3.50
2023-04-07T18:09:59.128Z,3.50
2023-04-07T18:12:25.803Z,3.60
2023-04-07T18:14:52.420Z,3.90
2023-04-07T18:17:18.960Z,3.63
2023-04-07T18:19:45.538Z,3.70
2023-04-07T18:22:12.130Z,3.88
2023-04-07T18:24:38.677Z,4.50
2023-04-07T18:27:05.442Z,4.75
2023-04-07T18:29:32.054Z,4.35
2023-04-07T18:31:58.572Z,4.43
2023-04-07T18:34:26.196Z,3.90
2023-04-07T18:36:53.742Z,4.30
2023-04-07T18:39:20.257Z,4.18
2023-04-07T18:41:48.325Z,4.68
2023-04-07T18:44:14.904Z,4.57
2023-04-07T18:46:41.472Z,4.10
2023-04-07T18:49:08.099Z,4.80
2023-04-07T18:51:35.118Z,4.65
2023-04-07T18:54:01.661Z,4.55
2023-04-07T18:56:29.857Z,4.75
2023-04-07T18:58:56.460Z,4.72
2023-04-07T19:01:23.041Z,5.05
2023-04-07T19:03:49.753Z,5.70
2023-04-07T19:06:16.855Z,5.53
2023-04-07T19:08:43.402Z,5.35
2023-04-07T19:11:10.353Z,4.75
2023-04-07T19:13:36.940Z,5.22
2023-04-07T19:16:03.642Z,4.63
2023-04-07T19:18:31.836Z,4.90
2023-04-07T19:20:58.541Z,5.53
2023-04-07T19:23:25.360Z,5.20
2023-04-07T19:25:52.000Z,5.07
2023-04-07T19:28:18.669Z,5.13
2023-04-07T19:30:45.260Z,4.80
2023-04-07T19:33:12.091Z,5.03
2023-04-07T19:35:41.556Z,5.88
2023-04-07T19:38:08.095Z,6.03
2023-04-07T19:40:36.072Z,5.20
2023-04-07T19:43:02.704Z,5.93
2023-04-07T19:45:29.221Z,6.07
2023-04-07T19:47:56.875Z,5.72
2023-04-07T19:50:23.748Z,6.00
2023-04-07T19:52:53.237Z,5.88
2023-04-07T19:55:20.042Z,6.35
2023-04-07T19:57:49.999Z,6.93
2023-04-07T20:00:16.901Z,6.55
2023-04-07T20:02:43.497Z,6.13
2023-04-07T20:05:10.354Z,6.40
2023-04-07T20:07:36.965Z,7.20
2023-04-07T20:10:03.955Z,6.93
2023-04-07T20:12:30.661Z,7.13
2023-04-07T20:14:57.269Z,6.53
2023-04-07T20:17:23.834Z,6.78
2023-04-07T20:19:53.676Z,6.25
2023-04-07T20:22:20.353Z,6.93
2023-04-07T20:24:46.946Z,6.95
2023-04-07T20:27:13.392Z,7.03
2023-04-07T20:29:39.873Z,8.23
2023-04-07T20:32:06.343Z,7.63
2023-04-07T20:34:32.973Z,7.70
2023-04-07T20:36:59.477Z,6.80
2023-04-07T20:39:26.010Z,8.50
2023-04-07T20:41:52.566Z,8.20
2023-04-07T20:44:19.131Z,8.38
2023-04-07T20:46:48.740Z,8.35
2023-04-07T20:49:15.256Z,8.15
2023-04-07T20:51:41.774Z,7.60
2023-04-07T20:54:08.974Z,7.50
2023-04-07T20:56:35.570Z,7.50
2023-04-07T20:59:02.154Z,7.75
2023-04-07T21:01:28.756Z,7.45
2023-04-07T21:03:55.495Z,7.97
2023-04-07T21:06:22.263Z,7.82
2023-04-07T21:08:49.096Z,6.45
2023-04-07T21:11:15.832Z,6.95
2023-04-07T21:13:42.608Z,6.53
2023-04-07T21:16:09.169Z,6.20
2023-04-07T21:18:35.846Z,6.43
2023-04-07T21:21:02.989Z,6.85
2023-04-07T21:23:31.314Z,5.93
2023-04-07T21:26:02.448Z,6.80
2023-04-07T21:28:29.113Z,5.90
2023-04-07T21:30:56.728Z,6.60
2023-04-07T21:33:23.575Z,5.90
2023-04-07T21:35:51.235Z,6.05
2023-04-07T21:38:18.114Z,5.90
2023-04-07T21:40:45.002Z,5.97
2023-04-07T21:43:12.360Z,5.72
2023-04-07T21:45:39.364Z,6.43
2023-04-07T21:48:06.616Z,6.18
2023-04-07T21:50:33.276Z,6.30
2023-04-07T21:52:59.804Z,6.38
2023-04-07T21:55:26.479Z,6.50
2023-04-07T21:57:53.116Z,5.57
2023-04-07T22:00:20.374Z,5.53
2023-04-07T22:02:47.241Z,5.75
2023-04-07T22:05:15.009Z,5.80
2023-04-07T22:07:41.490Z,5.45
2023-04-07T22:10:08.628Z,5.65
2023-04-07T22:12:35.111Z,4.90
2023-04-07T22:15:01.633Z,4.95
2023-04-07T22:17:28.179Z,4.95
2023-04-07T22:19:54.652Z,5.47
2023-04-07T22:22:21.267Z,5.50
2023-04-07T22:24:47.735Z,5.32
2023-04-07T22:27:14.199Z,4.95
2023-04-07T22:29:40.682Z,4.18
2023-04-07T22:32:07.155Z,4.88
2023-04-07T22:34:33.722Z,4.75
2023-04-07T22:37:00.176Z,4.75
2023-04-07T22:39:26.683Z,4.45
2023-04-07T22:41:53.394Z,4.60
2023-04-07T22:44:19.841Z,4.30
2023-04-07T22:46:46.474Z,4.32
2023-04-07T22:49:13.048Z,4.15
2023-04-07T22:51:39.569Z,4.10
2023-04-07T22:54:06.078Z,4.30
2023-04-07T22:56:32.541Z,3.97
2023-04-07T22:59:05.253Z,3.53
2023-04-07T23:03:58.620Z,3.30
2023-04-07T23:06:25.169Z,3.35
2023-04-07T23:08:51.909Z,3.38
2023-04-07T23:11:18.521Z,2.83
2023-04-07T23:13:45.047Z,3.17
2023-04-07T23:16:12.856Z,3.85
2023-04-07T23:18:40.621Z,3.28
2023-04-07T23:21:07.236Z,3.35
2023-04-07T23:23:39.080Z,2.90
2023-04-07T23:26:06.776Z,3.35
2023-04-07T23:28:33.343Z,3.10
2023-04-07T23:30:59.882Z,3.35
2023-04-07T23:33:26.415Z,3.08
2023-04-07T23:35:52.941Z,3.05
2023-04-07T23:38:19.429Z,2.95
2023-04-07T23:40:45.952Z,3.25
2023-04-07T23:43:12.365Z,2.63
2023-04-07T23:45:38.853Z,3.17
2023-04-07T23:48:05.934Z,2.88
2023-04-07T23:50:32.384Z,3.17
2023-04-07T23:52:58.828Z,2.67
2023-04-07T23:55:25.359Z,2.72
2023-04-07T23:57:51.794Z,3.15
